createdAt,value
2022-10-06T00:01:39.297Z,14.10
2022-10-06T00:04:12.968Z,14.11
2022-10-06T00:06:49.170Z,14.10
2022-10-06T00:09:34.197Z,14.10
2022-10-06T00:12:07.701Z,14.08
2022-10-06T00:14:41.610Z,14.08
2022-10-06T00:17:17.459Z,14.06
2022-10-06T00:19:55.766Z,14.04
2022-10-06T00:22:34.377Z,14.02
2022-10-06T00:25:09.600Z,14.02
2022-10-06T00:27:45.466Z,14.03
2022-10-06T00:30:21.219Z,14.07
2022-10-06T00:32:57.518Z,14.11
2022-10-06T00:35:36.676Z,14.14
2022-10-06T00:38:12.248Z,14.14
2022-10-06T00:40:55.484Z,14.12
2022-10-06T00:43:46.022Z,14.11
2022-10-06T00:46:26.771Z,14.09
2022-10-06T00:49:07.600Z,14.06
2022-10-06T00:51:47.584Z,14.05
2022-10-06T00:54:22.487Z,14.05
2022-10-06T00:56:59.647Z,14.05
2022-10-06T00:59:35.770Z,14.04
2022-10-06T01:02:15.007Z,14.03
2022-10-06T01:04:52.408Z,14.03
2022-10-06T01:07:29.002Z,14.05
2022-10-06T01:10:06.188Z,14.09
2022-10-06T01:12:40.343Z,14.10
2022-10-06T01:15:17.848Z,14.10
2022-10-06T01:18:15.861Z,14.11
2022-10-06T01:20:54.977Z,14.12
2022-10-06T01:23:32.435Z,14.14
2022-10-06T01:26:18.771Z,14.16
2022-10-06T01:28:52.952Z,14.17
2022-10-06T01:31:27.314Z,14.16
2022-10-06T01:34:00.941Z,14.16
2022-10-06T01:36:34.979Z,14.16
2022-10-06T01:39:08.491Z,14.16
2022-10-06T01:41:42.750Z,14.16
2022-10-06T01:44:16.452Z,14.16
2022-10-06T01:46:50.749Z,14.15
2022-10-06T01:49:24.169Z,14.15
2022-10-06T01:52:00.862Z,14.15
2022-10-06T01:54:34.626Z,14.15
2022-10-06T01:57:09.021Z,14.15
2022-10-06T01:59:42.304Z,14.15
2022-10-06T02:02:15.891Z,14.14
2022-10-06T02:04:49.692Z,14.14
2022-10-06T02:07:23.697Z,14.12
2022-10-06T02:09:59.858Z,14.12
2022-10-06T02:12:38.005Z,14.11
2022-10-06T02:15:15.157Z,14.11
2022-10-06T02:17:49.145Z,14.07
2022-10-06T02:20:22.636Z,14.04
2022-10-06T02:22:56.485Z,14.03
2022-10-06T02:25:30.118Z,14.05
2022-10-06T02:28:03.439Z,14.05
2022-10-06T02:30:38.045Z,14.03
2022-10-06T02:33:11.641Z,14.02
2022-10-06T02:35:45.588Z,14.01
2022-10-06T02:38:19.262Z,14.00
2022-10-06T02:40:53.376Z,14.02
2022-10-06T02:43:29.260Z,14.05
2022-10-06T02:46:04.930Z,14.07
2022-10-06T02:48:40.052Z,14.09
2022-10-06T02:51:16.066Z,14.11
2022-10-06T02:53:51.247Z,14.09
2022-10-06T02:56:26.426Z,14.10
2022-10-06T02:59:00.004Z,14.08
2022-10-06T03:01:36.308Z,14.07
2022-10-06T03:04:16.518Z,14.07
2022-10-06T03:06:50.508Z,14.08
2022-10-06T03:09:37.972Z,14.08
2022-10-06T03:12:11.654Z,14.05
2022-10-06T03:14:47.257Z,14.05
2022-10-06T03:17:20.534Z,14.06
2022-10-06T03:19:58.412Z,14.09
2022-10-06T03:22:33.183Z,14.11
2022-10-06T03:25:06.611Z,14.14
2022-10-06T03:27:39.962Z,14.12
2022-10-06T03:30:15.284Z,14.14
2022-10-06T03:32:48.868Z,14.16
2022-10-06T03:35:22.288Z,14.16
2022-10-06T03:37:56.295Z,14.16
2022-10-06T03:40:29.795Z,14.19
2022-10-06T03:43:03.404Z,14.22
2022-10-06T03:45:36.970Z,14.25
2022-10-06T03:48:10.922Z,14.27
2022-10-06T03:50:45.220Z,14.27
2022-10-06T03:53:18.409Z,14.27
2022-10-06T03:55:51.613Z,14.30
2022-10-06T03:58:26.336Z,14.32
2022-10-06T04:01:06.947Z,14.33
2022-10-06T04:03:40.691Z,14.35
2022-10-06T04:06:19.313Z,14.36
2022-10-06T04:08:53.998Z,14.37
2022-10-06T04:11:29.138Z,14.36
2022-10-06T04:14:04.629Z,14.36
2022-10-06T04:16:40.378Z,14.35
2022-10-06T04:19:16.682Z,14.35
2022-10-06T04:21:53.977Z,14.34
2022-10-06T04:24:30.414Z,14.34
2022-10-06T04:27:18.532Z,14.37
2022-10-06T04:29:58.768Z,14.40
2022-10-06T04:32:32.648Z,14.39
2022-10-06T04:35:10.775Z,14.40
2022-10-06T04:37:48.251Z,14.39
2022-10-06T04:40:21.746Z,14.39
2022-10-06T04:42:56.655Z,14.39
2022-10-06T04:45:30.003Z,14.41
2022-10-06T04:48:03.425Z,14.43
2022-10-06T04:50:37.234Z,14.44
2022-10-06T04:53:13.974Z,14.47
2022-10-06T04:56:08.698Z,14.48
2022-10-06T04:58:45.530Z,14.46
2022-10-06T05:01:20.835Z,14.45
2022-10-06T05:03:56.193Z,14.47
2022-10-06T05:06:32.024Z,14.48
2022-10-06T05:09:08.269Z,14.49
2022-10-06T05:11:43.437Z,14.54
2022-10-06T05:14:19.864Z,14.56
2022-10-06T05:16:55.549Z,14.58
2022-10-06T05:19:34.574Z,14.58
2022-10-06T05:22:08.594Z,14.60
2022-10-06T05:24:42.432Z,14.62
2022-10-06T05:27:15.990Z,14.64
2022-10-06T05:29:49.540Z,14.70
2022-10-06T05:32:24.704Z,14.74
2022-10-06T05:34:58.638Z,14.77
2022-10-06T05:37:32.083Z,14.83
2022-10-06T05:40:05.431Z,14.91
2022-10-06T05:42:43.149Z,15.05
2022-10-06T05:45:18.294Z,15.18
2022-10-06T05:47:52.066Z,15.22
2022-10-06T05:50:26.171Z,15.26
2022-10-06T05:52:59.805Z,15.30
2022-10-06T05:55:33.633Z,15.38
2022-10-06T05:58:06.876Z,15.47
2022-10-06T06:00:40.732Z,15.61
2022-10-06T06:03:14.357Z,15.71
2022-10-06T06:05:47.889Z,15.80
2022-10-06T06:08:22.186Z,16.19
2022-10-06T06:10:56.101Z,17.47
2022-10-06T06:13:29.500Z,19.19
2022-10-06T06:16:15.272Z,19.99
2022-10-06T06:18:49.438Z,19.86
2022-10-06T06:21:24.343Z,19.70
2022-10-06T06:23:58.430Z,19.57
2022-10-06T06:26:33.087Z,19.63
2022-10-06T06:29:06.805Z,19.85
2022-10-06T06:31:46.606Z,19.96
2022-10-06T06:34:20.296Z,20.35
2022-10-06T06:37:03.629Z,20.33
2022-10-06T06:39:40.920Z,20.14
2022-10-06T06:42:15.044Z,19.77
2022-10-06T06:45:10.660Z,19.33
2022-10-06T06:48:02.237Z,19.00
2022-10-06T06:50:36.321Z,18.74
2022-10-06T06:53:15.476Z,18.46
2022-10-06T06:55:53.467Z,18.25
2022-10-06T06:58:29.090Z,18.08
2022-10-06T07:01:14.494Z,17.95
2022-10-06T07:04:01.283Z,17.77
2022-10-06T07:06:47.897Z,17.68
2022-10-06T07:09:32.736Z,17.60
2022-10-06T07:12:17.317Z,17.52
2022-10-06T07:15:10.324Z,17.45
2022-10-06T07:18:04.405Z,17.41
2022-10-06T07:20:55.899Z,17.38
2022-10-06T07:23:47.599Z,17.31
2022-10-06T07:26:24.018Z,17.25
2022-10-06T07:29:00.411Z,17.21
2022-10-06T07:31:34.769Z,17.20
2022-10-06T07:34:08.629Z,17.23
2022-10-06T07:36:43.788Z,17.22
2022-10-06T07:39:17.465Z,17.16
2022-10-06T07:41:51.203Z,17.12
2022-10-06T07:44:24.735Z,17.10
2022-10-06T07:46:58.519Z,17.11
2022-10-06T07:49:51.886Z,17.14
2022-10-06T07:52:25.716Z,17.16
2022-10-06T07:54:59.890Z,17.14
2022-10-06T07:57:59.946Z,17.14
2022-10-06T08:03:10.932Z,17.03
2022-10-06T08:05:44.431Z,17.03
2022-10-06T08:08:19.109Z,17.07
2022-10-06T08:11:01.388Z,17.16
2022-10-06T08:13:36.698Z,17.32
2022-10-06T08:16:12.397Z,17.48
2022-10-06T08:18:50.497Z,17.66
2022-10-06T08:21:25.881Z,17.78
2022-10-06T08:24:03.545Z,17.95
2022-10-06T08:26:37.258Z,18.20
2022-10-06T08:29:11.866Z,18.43
2022-10-06T08:31:45.612Z,18.65
2022-10-06T08:34:19.387Z,18.84
2022-10-06T08:37:18.744Z,18.98
2022-10-06T08:39:46.755Z,19.05
2022-10-06T08:42:25.484Z,19.09
2022-10-06T08:44:59.864Z,19.08
2022-10-06T08:47:37.757Z,19.08
2022-10-06T08:50:15.231Z,19.08
2022-10-06T08:52:59.080Z,19.16
2022-10-06T08:55:48.191Z,19.21
2022-10-06T08:58:53.879Z,19.27
2022-10-06T09:01:30.634Z,19.37
2022-10-06T09:04:07.611Z,19.54
2022-10-06T09:06:52.262Z,19.76
2022-10-06T09:09:57.354Z,19.92
2022-10-06T09:12:38.059Z,19.94
2022-10-06T09:15:28.660Z,20.05
2022-10-06T09:18:11.085Z,20.16
2022-10-06T09:20:52.240Z,20.21
2022-10-06T09:23:40.558Z,20.19
2022-10-06T09:26:17.209Z,20.26
2022-10-06T09:28:50.970Z,20.37
2022-10-06T09:31:27.241Z,20.42
2022-10-06T09:34:06.295Z,20.51
2022-10-06T09:37:03.518Z,20.52
2022-10-06T09:39:38.980Z,20.59
2022-10-06T09:42:20.620Z,20.62
2022-10-06T09:45:06.980Z,20.65
2022-10-06T09:47:46.384Z,20.75
2022-10-06T09:50:25.860Z,20.80
2022-10-06T09:53:22.326Z,20.86
2022-10-06T09:55:56.982Z,20.95
2022-10-06T09:58:34.912Z,20.98
2022-10-06T10:01:11.040Z,20.93
2022-10-06T10:06:46.767Z,20.88
2022-10-06T10:09:28.109Z,20.90
2022-10-06T10:12:33.080Z,21.19
2022-10-06T10:15:24.431Z,21.65
2022-10-06T10:18:00.069Z,22.09
2022-10-06T10:20:37.923Z,22.30
2022-10-06T10:23:30.086Z,22.27
2022-10-06T10:26:22.742Z,22.10
2022-10-06T10:29:16.841Z,22.05
2022-10-06T10:32:10.198Z,21.99
2022-10-06T10:35:03.617Z,21.86
2022-10-06T10:37:44.596Z,21.75
2022-10-06T10:40:32.751Z,21.62
2022-10-06T10:43:33.491Z,21.47
2022-10-06T10:46:32.196Z,21.28
2022-10-06T10:49:13.372Z,21.11
2022-10-06T10:51:55.018Z,20.98
2022-10-06T10:54:29.577Z,20.88
2022-10-06T10:57:03.936Z,20.76
2022-10-06T10:59:42.691Z,20.70
2022-10-06T11:02:14.743Z,20.70
2022-10-06T11:04:50.121Z,20.65
2022-10-06T11:07:30.157Z,20.58
2022-10-06T11:10:13.749Z,20.55
2022-10-06T11:13:04.913Z,20.54
2022-10-06T11:16:12.342Z,20.50
2022-10-06T11:18:57.804Z,20.51
2022-10-06T11:21:37.993Z,20.57
2022-10-06T11:24:18.109Z,20.59
2022-10-06T11:27:11.413Z,20.60
2022-10-06T11:30:03.964Z,20.62
2022-10-06T11:32:47.843Z,20.64
2022-10-06T11:35:27.230Z,20.69
2022-10-06T11:38:07.558Z,20.78
2022-10-06T11:41:10.249Z,20.85
2022-10-06T11:43:50.473Z,20.91
2022-10-06T11:46:35.805Z,20.89
2022-10-06T11:49:53.901Z,20.89
2022-10-06T11:52:49.965Z,20.86
2022-10-06T11:55:29.395Z,20.78
2022-10-06T12:01:55.259Z,20.76
2022-10-06T12:04:28.850Z,20.77
2022-10-06T12:07:06.920Z,20.91
2022-10-06T12:10:27.727Z,21.16
2022-10-06T12:13:49.285Z,21.35
2022-10-06T12:19:27.818Z,21.47
2022-10-06T12:22:23.067Z,21.62
2022-10-06T12:25:05.765Z,21.68
2022-10-06T12:27:52.747Z,21.71
2022-10-06T12:30:30.563Z,21.66
2022-10-06T12:33:06.061Z,21.64
2022-10-06T12:35:41.038Z,21.71
2022-10-06T12:39:02.643Z,21.65
2022-10-06T12:42:00.692Z,21.50
2022-10-06T12:44:39.412Z,21.31
2022-10-06T12:47:21.954Z,21.16
2022-10-06T12:49:56.938Z,21.09
2022-10-06T12:52:48.756Z,21.10
2022-10-06T12:56:00.300Z,21.19
2022-10-06T12:58:34.236Z,21.07
2022-10-06T13:01:10.591Z,20.92
2022-10-06T13:03:49.116Z,20.79
2022-10-06T13:06:25.790Z,20.73
2022-10-06T13:09:15.183Z,20.63
2022-10-06T13:11:49.613Z,20.53
2022-10-06T13:14:23.208Z,20.50
2022-10-06T13:16:58.537Z,20.52
2022-10-06T13:19:37.093Z,20.56
2022-10-06T13:22:12.698Z,20.58
2022-10-06T13:24:45.880Z,20.56
2022-10-06T13:27:21.805Z,20.52
2022-10-06T13:30:19.651Z,20.47
2022-10-06T13:32:56.598Z,20.41
2022-10-06T13:35:30.274Z,20.35
2022-10-06T13:38:06.097Z,20.29
2022-10-06T13:40:45.225Z,20.20
2022-10-06T13:43:19.748Z,20.13
2022-10-06T13:45:54.382Z,20.06
2022-10-06T13:48:30.510Z,20.01
2022-10-06T13:51:03.821Z,20.07
2022-10-06T13:53:36.885Z,20.21
2022-10-06T13:56:34.863Z,20.35
2022-10-06T13:59:31.263Z,20.50
2022-10-06T14:02:23.532Z,20.62
2022-10-06T14:05:31.648Z,20.70
2022-10-06T14:08:17.599Z,20.75
2022-10-06T14:10:53.557Z,20.77
2022-10-06T14:13:29.452Z,20.80
2022-10-06T14:16:04.387Z,20.76
2022-10-06T14:18:42.093Z,20.63
2022-10-06T14:21:30.907Z,20.53
2022-10-06T14:24:07.548Z,20.50
2022-10-06T14:26:44.201Z,20.46
2022-10-06T14:29:18.017Z,20.48
2022-10-06T14:31:51.715Z,20.50
2022-10-06T14:34:25.710Z,20.50
2022-10-06T14:36:59.143Z,20.48
2022-10-06T14:39:32.511Z,20.46
2022-10-06T14:42:06.311Z,20.46
2022-10-06T14:44:40.065Z,20.47
2022-10-06T14:47:14.201Z,20.45
2022-10-06T14:49:48.096Z,20.44
2022-10-06T14:52:22.748Z,20.45
2022-10-06T14:54:56.906Z,20.45
2022-10-06T14:57:30.559Z,20.40
2022-10-06T15:00:05.868Z,20.33
2022-10-06T15:02:39.502Z,20.26
2022-10-06T15:05:14.095Z,20.18
2022-10-06T15:08:04.904Z,20.10
2022-10-06T15:10:39.318Z,20.06
2022-10-06T15:13:12.471Z,20.05
2022-10-06T15:15:46.263Z,20.01
2022-10-06T15:18:19.427Z,19.99
2022-10-06T15:20:53.125Z,19.93
2022-10-06T15:23:26.257Z,19.88
2022-10-06T15:26:16.721Z,19.84
2022-10-06T15:29:03.416Z,19.77
2022-10-06T15:31:38.978Z,19.70
2022-10-06T15:34:14.597Z,19.65
2022-10-06T15:36:48.462Z,19.59
2022-10-06T15:39:24.983Z,19.51
2022-10-06T15:41:58.533Z,19.45
2022-10-06T15:44:35.367Z,19.39
2022-10-06T15:47:09.548Z,19.32
2022-10-06T15:49:42.715Z,19.25
2022-10-06T15:52:17.943Z,19.20
2022-10-06T15:54:52.369Z,19.15
2022-10-06T15:57:25.773Z,19.08
2022-10-06T15:59:59.646Z,19.02
2022-10-06T16:02:35.953Z,18.96
2022-10-06T16:05:33.584Z,18.90
2022-10-06T16:08:07.029Z,18.84
2022-10-06T16:10:40.694Z,18.77
2022-10-06T16:13:14.063Z,18.72
2022-10-06T16:15:53.850Z,18.66
2022-10-06T16:18:28.957Z,18.57
2022-10-06T16:21:02.353Z,18.49
2022-10-06T16:23:36.050Z,18.42
2022-10-06T16:26:09.416Z,18.36
2022-10-06T16:28:42.732Z,18.29
2022-10-06T16:31:16.552Z,18.23
2022-10-06T16:33:50.537Z,18.17
2022-10-06T16:36:24.289Z,18.09
2022-10-06T16:38:58.754Z,18.03
2022-10-06T16:41:32.338Z,17.97
2022-10-06T16:44:06.056Z,17.90
2022-10-06T16:46:39.679Z,17.84
2022-10-06T16:49:13.713Z,17.79
2022-10-06T16:51:47.657Z,17.74
2022-10-06T16:54:21.335Z,17.68
2022-10-06T16:56:55.643Z,17.63
2022-10-06T16:59:29.816Z,17.59
2022-10-06T17:02:03.287Z,17.56
2022-10-06T17:04:37.439Z,17.52
2022-10-06T17:07:11.180Z,17.46
2022-10-06T17:10:01.558Z,17.40
2022-10-06T17:12:38.549Z,17.37
2022-10-06T17:15:13.419Z,17.34
2022-10-06T17:17:47.015Z,17.30
2022-10-06T17:20:20.652Z,17.25
2022-10-06T17:22:55.606Z,17.19
2022-10-06T17:25:29.591Z,17.14
2022-10-06T17:28:02.921Z,17.08
2022-10-06T17:30:36.134Z,17.03
2022-10-06T17:33:09.588Z,16.97
2022-10-06T17:35:42.990Z,16.93
2022-10-06T17:38:16.296Z,16.87
2022-10-06T17:40:49.990Z,16.82
2022-10-06T17:43:23.727Z,16.77
2022-10-06T17:45:57.234Z,16.72
2022-10-06T17:48:31.009Z,16.67
2022-10-06T17:51:04.428Z,16.62
2022-10-06T17:53:39.936Z,16.59
2022-10-06T17:56:14.580Z,16.56
2022-10-06T17:58:53.891Z,16.53
2022-10-06T18:01:29.609Z,16.47
2022-10-06T18:04:04.557Z,16.39
2022-10-06T18:06:40.374Z,16.32
2022-10-06T18:09:14.950Z,16.29
2022-10-06T18:11:55.676Z,16.27
2022-10-06T18:14:32.674Z,16.23
2022-10-06T18:17:06.404Z,16.19
2022-10-06T18:19:39.899Z,16.14
2022-10-06T18:22:14.063Z,16.09
2022-10-06T18:24:47.912Z,16.05
2022-10-06T18:27:24.889Z,16.02
2022-10-06T18:29:58.638Z,15.99
2022-10-06T18:38:22.424Z,16.00
2022-10-06T18:41:02.363Z,15.98
2022-10-06T18:43:36.230Z,15.94
2022-10-06T18:46:30.233Z,15.87
2022-10-06T18:49:10.794Z,15.79
2022-10-06T18:51:46.549Z,15.72
2022-10-06T18:54:22.576Z,15.64
2022-10-06T18:56:56.666Z,15.56
2022-10-06T18:59:31.715Z,15.45
2022-10-06T19:02:06.515Z,15.40
2022-10-06T19:04:41.407Z,15.37
2022-10-06T19:07:15.433Z,15.35
2022-10-06T19:09:51.107Z,15.29
2022-10-06T19:12:24.802Z,15.22
2022-10-06T19:14:59.238Z,15.17
2022-10-06T19:17:33.661Z,15.12
2022-10-06T19:20:11.861Z,15.09
2022-10-06T19:22:48.025Z,15.06
2022-10-06T19:25:22.299Z,15.00
2022-10-06T19:27:56.517Z,14.92
2022-10-06T19:30:30.272Z,14.86
2022-10-06T19:33:05.085Z,14.81
2022-10-06T19:35:39.471Z,14.75
2022-10-06T19:38:12.680Z,14.69
2022-10-06T19:40:46.939Z,14.63
2022-10-06T19:43:22.348Z,14.56
2022-10-06T19:46:00.791Z,14.51
2022-10-06T19:48:34.866Z,14.47
2022-10-06T19:51:17.654Z,14.45
2022-10-06T19:53:52.181Z,14.43
2022-10-06T19:56:31.132Z,14.38
2022-10-06T19:59:06.031Z,14.31
2022-10-06T20:01:39.347Z,14.25
2022-10-06T20:04:13.660Z,14.23
2022-10-06T20:06:47.586Z,14.22
2022-10-06T20:09:22.578Z,14.20
2022-10-06T20:11:56.291Z,14.21
2022-10-06T20:14:29.874Z,14.23
2022-10-06T20:17:04.393Z,14.26
2022-10-06T20:19:38.816Z,14.28
2022-10-06T20:22:12.859Z,14.32
2022-10-06T20:24:48.092Z,14.32
2022-10-06T20:27:22.178Z,14.30
2022-10-06T20:29:58.414Z,14.28
2022-10-06T20:32:32.663Z,14.26
2022-10-06T20:35:06.734Z,14.24
2022-10-06T20:37:42.468Z,14.23
2022-10-06T20:40:33.892Z,14.20
2022-10-06T20:43:07.280Z,14.19
2022-10-06T20:45:40.605Z,14.18
2022-10-06T20:48:14.686Z,14.15
2022-10-06T20:50:48.437Z,14.12
2022-10-06T20:53:22.139Z,14.12
2022-10-06T20:55:58.797Z,14.11
2022-10-06T20:58:32.880Z,14.06
2022-10-06T21:01:11.316Z,14.00
2022-10-06T21:03:49.387Z,13.93
2022-10-06T21:06:24.178Z,13.85
2022-10-06T21:08:58.642Z,13.82
2022-10-06T21:11:32.718Z,13.81
2022-10-06T21:14:07.962Z,13.80
2022-10-06T21:16:43.289Z,13.78
2022-10-06T21:19:18.403Z,13.74
2022-10-06T21:21:56.506Z,13.69
2022-10-06T21:24:29.914Z,13.65
2022-10-06T21:27:03.640Z,13.60
2022-10-06T21:29:37.019Z,13.57
2022-10-06T21:32:11.376Z,13.58
2022-10-06T21:34:44.804Z,13.56
2022-10-06T21:37:18.507Z,13.54
2022-10-06T21:39:53.105Z,13.50
2022-10-06T21:42:26.794Z,13.45
2022-10-06T21:45:00.477Z,13.42
2022-10-06T21:47:34.935Z,13.39
2022-10-06T21:50:10.281Z,13.33
2022-10-06T21:52:44.283Z,13.30
2022-10-06T21:55:18.022Z,13.24
2022-10-06T21:57:52.383Z,13.16
2022-10-06T22:00:26.171Z,13.11
2022-10-06T22:02:59.887Z,13.07
2022-10-06T22:05:34.723Z,12.98
2022-10-06T22:08:08.322Z,12.96
2022-10-06T22:10:41.974Z,12.94
2022-10-06T22:13:15.629Z,12.90
2022-10-06T22:15:49.255Z,12.86
2022-10-06T22:18:22.929Z,12.82
2022-10-06T22:20:56.323Z,12.76
2022-10-06T22:23:29.942Z,12.69
2022-10-06T22:26:04.107Z,12.66
2022-10-06T22:28:38.140Z,12.64
2022-10-06T22:31:13.408Z,12.61
2022-10-06T22:33:51.635Z,12.58
2022-10-06T22:36:25.798Z,12.54
2022-10-06T22:38:59.868Z,12.52
2022-10-06T22:41:34.107Z,12.53
2022-10-06T22:44:07.923Z,12.55
2022-10-06T22:46:41.568Z,12.56
2022-10-06T22:49:15.151Z,12.52
2022-10-06T22:51:48.558Z,12.47
2022-10-06T22:54:26.652Z,12.45
2022-10-06T22:57:00.100Z,12.45
2022-10-06T22:59:34.185Z,12.42
2022-10-06T23:02:07.612Z,12.41
2022-10-06T23:04:41.289Z,12.39
2022-10-06T23:07:14.660Z,12.37
2022-10-06T23:09:49.043Z,12.36
2022-10-06T23:12:22.904Z,12.34
2022-10-06T23:14:56.591Z,12.31
2022-10-06T23:17:30.018Z,12.28
2022-10-06T23:20:04.277Z,12.24
2022-10-06T23:22:38.305Z,12.19
2022-10-06T23:25:13.286Z,12.17
2022-10-06T23:27:46.988Z,12.14
2022-10-06T23:30:21.059Z,12.13
2022-10-06T23:32:54.569Z,12.15
2022-10-06T23:35:28.023Z,12.13
2022-10-06T23:38:01.597Z,12.10
2022-10-06T23:40:35.864Z,12.06
2022-10-06T23:43:09.357Z,12.03
2022-10-06T23:45:42.853Z,12.02
2022-10-06T23:48:16.886Z,12.03
2022-10-06T23:51:00.825Z,12.03
2022-10-06T23:53:35.307Z,12.01
2022-10-06T23:56:09.430Z,12.03
2022-10-06T23:58:43.598Z,12.02
